createdAt,value
2022-10-14T00:02:00.090Z,21.24
2022-10-14T00:04:26.519Z,21.23
2022-10-14T00:06:52.825Z,21.24
2022-10-14T00:09:19.130Z,21.24
2022-10-14T00:11:45.489Z,21.25
2022-10-14T00:14:12.534Z,21.23
2022-10-14T00:16:39.410Z,21.22
2022-10-14T00:19:06.767Z,21.24
2022-10-14T00:21:33.193Z,21.22
2022-10-14T00:23:59.511Z,21.22
2022-10-14T00:26:27.423Z,21.23
2022-10-14T00:28:53.785Z,21.21
2022-10-14T00:31:21.354Z,21.21
2022-10-14T00:33:47.764Z,21.22
2022-10-14T00:36:14.821Z,21.21
2022-10-14T00:38:41.151Z,21.21
2022-10-14T00:41:08.488Z,21.21
2022-10-14T00:43:51.374Z,21.20
2022-10-14T00:46:17.708Z,21.19
2022-10-14T00:48:44.030Z,21.18
2022-10-14T00:51:10.357Z,21.20
2022-10-14T00:53:36.677Z,21.20
2022-10-14T00:56:03.269Z,21.19
2022-10-14T00:58:29.631Z,21.17
2022-10-14T01:00:56.035Z,21.18
2022-10-14T01:03:22.799Z,21.18
2022-10-14T01:05:53.178Z,21.18
2022-10-14T01:08:26.287Z,21.17
2022-10-14T01:10:59.980Z,21.16
2022-10-14T01:13:27.921Z,21.14
2022-10-14T01:16:12.027Z,21.16
2022-10-14T01:18:43.345Z,21.15
2022-10-14T01:21:12.858Z,21.14
2022-10-14T01:23:40.399Z,21.16
2022-10-14T01:26:12.854Z,21.14
2022-10-14T01:28:43.244Z,21.14
2022-10-14T01:31:11.609Z,21.12
2022-10-14T01:33:38.446Z,21.11
2022-10-14T01:36:20.086Z,21.11
2022-10-14T01:38:54.059Z,21.12
2022-10-14T01:41:21.831Z,21.12
2022-10-14T01:43:48.859Z,21.12
2022-10-14T01:46:16.003Z,21.11
2022-10-14T01:48:44.477Z,21.10
2022-10-14T01:51:15.493Z,21.09
2022-10-14T01:53:42.874Z,21.08
2022-10-14T01:56:09.587Z,21.08
2022-10-14T01:58:37.463Z,21.09
2022-10-14T02:01:04.223Z,21.08
2022-10-14T02:03:43.671Z,21.08
2022-10-14T02:06:11.704Z,21.07
2022-10-14T02:08:47.613Z,21.07
2022-10-14T02:11:15.663Z,21.06
2022-10-14T02:13:45.367Z,21.05
2022-10-14T02:16:19.051Z,21.05
2022-10-14T02:18:52.529Z,21.04
2022-10-14T02:21:27.257Z,21.05
2022-10-14T02:23:54.594Z,21.04
2022-10-14T02:26:23.279Z,21.04
2022-10-14T02:28:49.729Z,21.03
2022-10-14T02:31:16.262Z,21.05
2022-10-14T02:33:45.343Z,21.04
2022-10-14T02:36:11.936Z,21.03
2022-10-14T02:38:38.387Z,21.01
2022-10-14T02:41:05.615Z,21.01
2022-10-14T02:43:34.774Z,21.03
2022-10-14T02:46:05.363Z,21.04
2022-10-14T02:48:31.991Z,21.06
2022-10-14T02:50:58.531Z,21.08
2022-10-14T02:53:24.925Z,21.10
2022-10-14T02:55:51.286Z,21.11
2022-10-14T02:58:17.607Z,21.13
2022-10-14T03:00:43.993Z,21.14
2022-10-14T03:03:11.984Z,21.15
2022-10-14T03:05:38.515Z,21.15
2022-10-14T03:08:10.959Z,21.16
2022-10-14T03:10:38.451Z,21.18
2022-10-14T03:13:07.090Z,21.17
2022-10-14T03:15:38.866Z,21.17
2022-10-14T03:18:06.102Z,21.16
2022-10-14T03:20:40.471Z,21.19
2022-10-14T03:23:08.723Z,21.19
2022-10-14T03:25:37.064Z,21.20
2022-10-14T03:28:23.698Z,21.24
2022-10-14T03:30:56.958Z,21.25
2022-10-14T03:33:38.322Z,21.24
2022-10-14T03:36:08.475Z,21.23
2022-10-14T03:38:46.532Z,21.23
2022-10-14T03:41:28.043Z,21.23
2022-10-14T03:43:54.589Z,21.22
2022-10-14T03:46:20.985Z,21.23
2022-10-14T03:48:48.725Z,21.25
2022-10-14T03:51:15.100Z,21.25
2022-10-14T03:53:42.645Z,21.25
2022-10-14T03:56:11.466Z,21.27
2022-10-14T03:58:37.865Z,21.28
2022-10-14T04:01:10.684Z,21.26
2022-10-14T04:03:56.166Z,21.27
2022-10-14T04:06:24.989Z,21.27
2022-10-14T04:08:56.098Z,21.29
2022-10-14T04:11:28.966Z,21.27
2022-10-14T04:14:01.232Z,21.28
2022-10-14T04:16:30.028Z,21.28
2022-10-14T04:19:00.760Z,21.27
2022-10-14T04:21:27.096Z,21.27
2022-10-14T04:23:53.686Z,21.26
2022-10-14T04:26:31.667Z,21.27
2022-10-14T04:28:58.479Z,21.26
2022-10-14T04:31:33.530Z,21.29
2022-10-14T04:34:02.295Z,21.26
2022-10-14T04:36:34.023Z,21.29
2022-10-14T04:39:02.585Z,21.30
2022-10-14T04:41:28.961Z,21.32
2022-10-14T04:43:57.845Z,21.32
2022-10-14T04:46:31.410Z,21.32
2022-10-14T04:48:57.969Z,21.31
2022-10-14T04:51:28.723Z,21.32
2022-10-14T04:54:03.731Z,21.31
2022-10-14T04:56:40.739Z,21.31
2022-10-14T04:59:07.257Z,21.32
2022-10-14T05:01:50.895Z,21.32
2022-10-14T05:04:17.684Z,21.34
2022-10-14T05:06:46.339Z,21.32
2022-10-14T05:09:15.114Z,21.38
2022-10-14T05:11:42.344Z,21.42
2022-10-14T05:14:09.948Z,21.42
2022-10-14T05:16:37.515Z,21.42
2022-10-14T05:19:06.167Z,21.01
2022-10-14T05:21:35.620Z,21.13
2022-10-14T05:24:14.936Z,21.25
2022-10-14T05:26:42.663Z,21.31
2022-10-14T05:29:12.228Z,21.18
2022-10-14T05:31:39.556Z,21.20
2022-10-14T05:34:30.894Z,21.28
2022-10-14T05:36:57.701Z,21.31
2022-10-14T05:39:24.931Z,21.32
2022-10-14T05:41:51.298Z,21.34
2022-10-14T05:44:22.637Z,21.36
2022-10-14T05:46:49.621Z,21.34
2022-10-14T05:49:16.137Z,21.38
2022-10-14T05:51:43.445Z,21.40
2022-10-14T05:54:16.611Z,21.39
2022-10-14T05:56:43.753Z,21.39
2022-10-14T05:59:10.558Z,21.40
2022-10-14T06:01:38.125Z,21.38
2022-10-14T06:04:04.497Z,21.39
2022-10-14T06:06:30.822Z,21.40
2022-10-14T06:08:57.163Z,21.38
2022-10-14T06:11:23.486Z,21.38
2022-10-14T06:13:50.194Z,21.37
2022-10-14T06:16:16.873Z,21.37
2022-10-14T06:18:43.313Z,21.38
2022-10-14T06:21:10.319Z,21.40
2022-10-14T06:23:36.638Z,21.39
2022-10-14T06:26:03.755Z,21.11
2022-10-14T06:28:30.289Z,21.26
2022-10-14T06:30:56.649Z,21.44
2022-10-14T06:33:22.957Z,21.23
2022-10-14T06:35:49.273Z,21.14
2022-10-14T06:38:15.582Z,21.29
2022-10-14T06:40:41.898Z,21.32
2022-10-14T06:43:08.211Z,21.36
2022-10-14T06:45:34.648Z,21.37
2022-10-14T06:48:01.548Z,21.36
2022-10-14T06:50:27.869Z,21.33
2022-10-14T06:52:54.205Z,21.24
2022-10-14T06:55:20.547Z,21.29
2022-10-14T06:57:46.881Z,14.48
2022-10-14T07:00:13.318Z,13.25
2022-10-14T07:02:39.695Z,16.52
2022-10-14T07:05:06.073Z,19.28
2022-10-14T07:07:32.477Z,20.18
2022-10-14T07:09:59.084Z,20.34
2022-10-14T07:12:25.686Z,20.53
2022-10-14T07:14:52.303Z,21.06
2022-10-14T07:17:18.743Z,21.39
2022-10-14T07:19:45.270Z,21.52
2022-10-14T07:22:11.639Z,21.51
2022-10-14T07:24:37.980Z,21.56
2022-10-14T07:27:04.381Z,21.63
2022-10-14T07:29:30.713Z,21.65
2022-10-14T07:31:57.022Z,21.66
2022-10-14T07:34:23.342Z,21.67
2022-10-14T07:36:49.690Z,21.69
2022-10-14T07:39:16.049Z,21.72
2022-10-14T07:41:42.381Z,21.78
2022-10-14T07:44:09.683Z,21.80
2022-10-14T07:46:37.197Z,21.90
2022-10-14T07:49:07.367Z,21.91
2022-10-14T07:51:33.786Z,21.94
2022-10-14T07:54:00.506Z,21.82
2022-10-14T07:56:26.847Z,21.85
2022-10-14T07:58:53.223Z,21.93
2022-10-14T08:01:19.654Z,22.05
2022-10-14T08:03:46.326Z,22.12
2022-10-14T08:06:12.711Z,22.18
2022-10-14T08:08:39.078Z,22.15
2022-10-14T08:11:28.631Z,22.21
2022-10-14T08:13:54.950Z,22.16
2022-10-14T08:16:23.025Z,22.15
2022-10-14T08:18:49.767Z,21.99
2022-10-14T08:21:16.099Z,21.95
2022-10-14T08:23:42.440Z,22.00
2022-10-14T08:26:18.916Z,22.04
2022-10-14T08:28:45.326Z,22.08
2022-10-14T08:31:11.717Z,21.97
2022-10-14T08:33:38.090Z,21.99
2022-10-14T08:36:04.458Z,22.04
2022-10-14T08:38:30.786Z,22.08
2022-10-14T08:41:03.491Z,22.10
2022-10-14T08:43:30.645Z,22.20
2022-10-14T08:45:58.102Z,22.27
2022-10-14T08:48:24.889Z,22.23
2022-10-14T08:50:52.572Z,22.27
2022-10-14T08:53:42.094Z,22.24
2022-10-14T08:56:08.421Z,22.27
2022-10-14T08:58:35.696Z,22.24
2022-10-14T09:01:03.542Z,22.23
2022-10-14T09:03:36.869Z,22.27
2022-10-14T09:06:10.080Z,22.33
2022-10-14T09:08:41.991Z,22.28
2022-10-14T09:11:18.444Z,22.29
2022-10-14T09:13:45.968Z,22.34
2022-10-14T09:16:16.255Z,22.40
2022-10-14T09:18:44.767Z,22.32
2022-10-14T09:21:52.268Z,22.27
2022-10-14T09:24:18.621Z,22.28
2022-10-14T09:26:49.107Z,22.30
2022-10-14T09:29:19.477Z,22.28
2022-10-14T09:31:45.830Z,22.10
2022-10-14T09:34:23.867Z,22.27
2022-10-14T09:36:50.205Z,22.34
2022-10-14T09:39:16.509Z,22.35
2022-10-14T09:41:42.828Z,22.35
2022-10-14T09:44:18.495Z,22.35
2022-10-14T09:46:46.967Z,22.31
2022-10-14T09:49:16.886Z,22.32
2022-10-14T09:51:43.199Z,22.41
2022-10-14T09:56:42.050Z,22.16
2022-10-14T09:59:19.359Z,22.17
2022-10-14T10:01:53.143Z,22.25
2022-10-14T10:04:31.310Z,22.20
2022-10-14T10:06:58.038Z,22.27
2022-10-14T10:09:24.490Z,22.20
2022-10-14T10:11:50.826Z,22.28
2022-10-14T10:14:25.945Z,22.24
2022-10-14T10:17:12.822Z,22.24
2022-10-14T10:19:43.251Z,22.26
2022-10-14T10:24:49.889Z,22.38
2022-10-14T10:27:20.153Z,22.31
2022-10-14T10:29:47.646Z,22.29
2022-10-14T10:32:16.066Z,22.27
2022-10-14T10:34:51.399Z,22.31
2022-10-14T10:37:30.635Z,22.33
2022-10-14T10:40:09.302Z,22.36
2022-10-14T10:42:39.669Z,22.34
2022-10-14T10:45:06.797Z,22.31
2022-10-14T10:47:42.253Z,22.32
2022-10-14T10:50:26.706Z,22.34
2022-10-14T10:53:11.530Z,22.35
2022-10-14T10:55:39.761Z,22.39
2022-10-14T10:58:11.170Z,22.40
2022-10-14T11:00:58.162Z,22.40
2022-10-14T11:03:44.812Z,22.50
2022-10-14T11:06:50.571Z,22.21
2022-10-14T11:09:46.113Z,21.99
2022-10-14T11:12:15.553Z,21.93
2022-10-14T11:14:50.453Z,21.98
2022-10-14T11:17:19.919Z,22.14
2022-10-14T11:19:46.590Z,22.33
2022-10-14T11:22:28.796Z,22.40
2022-10-14T11:25:22.699Z,22.45
2022-10-14T11:27:52.376Z,22.56
2022-10-14T11:30:33.913Z,22.39
2022-10-14T11:33:06.699Z,22.56
2022-10-14T11:35:36.849Z,22.69
2022-10-14T11:38:06.495Z,22.65
2022-10-14T11:40:39.019Z,22.64
2022-10-14T11:43:20.496Z,22.61
2022-10-14T11:45:57.577Z,22.59
2022-10-14T11:48:26.942Z,22.61
2022-10-14T11:50:56.223Z,22.61
2022-10-14T11:53:24.880Z,22.60
2022-10-14T11:56:17.500Z,22.62
2022-10-14T11:58:43.835Z,22.57
2022-10-14T12:01:10.200Z,22.59
2022-10-14T12:03:40.783Z,22.58
2022-10-14T12:06:25.353Z,22.64
2022-10-14T12:08:55.309Z,22.57
2022-10-14T12:11:21.562Z,22.61
2022-10-14T12:13:52.272Z,22.63
2022-10-14T12:16:19.122Z,22.54
2022-10-14T12:18:46.377Z,22.59
2022-10-14T12:21:12.607Z,22.46
2022-10-14T12:23:43.677Z,22.54
2022-10-14T12:26:12.397Z,22.56
2022-10-14T12:28:38.767Z,22.51
2022-10-14T12:31:23.235Z,22.54
2022-10-14T12:34:08.519Z,22.64
2022-10-14T12:39:17.896Z,22.55
2022-10-14T12:42:03.562Z,22.45
2022-10-14T12:44:32.676Z,22.07
2022-10-14T12:46:59.001Z,22.01
2022-10-14T12:49:27.897Z,21.96
2022-10-14T12:51:55.168Z,21.93
2022-10-14T12:54:21.875Z,21.83
2022-10-14T12:56:55.747Z,21.89
2022-10-14T12:59:23.287Z,21.91
2022-10-14T13:01:56.387Z,21.99
2022-10-14T13:04:22.851Z,21.99
2022-10-14T13:07:12.019Z,21.92
2022-10-14T13:09:49.651Z,21.99
2022-10-14T13:12:19.004Z,22.02
2022-10-14T13:15:05.511Z,22.03
2022-10-14T13:17:47.590Z,21.99
2022-10-14T13:20:48.843Z,22.00
2022-10-14T13:23:21.847Z,21.95
2022-10-14T13:25:50.623Z,21.96
2022-10-14T13:28:27.548Z,21.98
2022-10-14T13:31:03.629Z,21.96
2022-10-14T13:33:36.010Z,21.90
2022-10-14T13:36:10.643Z,21.98
2022-10-14T13:38:36.953Z,22.00
2022-10-14T13:41:03.277Z,21.86
2022-10-14T13:43:32.806Z,21.83
2022-10-14T13:46:17.728Z,21.86
2022-10-14T13:48:44.596Z,21.84
2022-10-14T13:51:24.607Z,21.90
2022-10-14T13:54:15.944Z,21.90
2022-10-14T13:56:42.434Z,21.83
2022-10-14T13:59:43.223Z,21.89
2022-10-14T14:02:15.445Z,21.80
2022-10-14T14:04:41.918Z,21.64
2022-10-14T14:08:08.017Z,21.72
2022-10-14T14:09:59.822Z,21.79
2022-10-14T14:12:26.151Z,21.84
2022-10-14T14:14:52.497Z,21.85
2022-10-14T14:17:22.237Z,21.88
2022-10-14T14:19:50.542Z,21.87
2022-10-14T14:22:20.805Z,21.89
2022-10-14T14:24:47.465Z,21.89
2022-10-14T14:27:14.671Z,21.91
2022-10-14T14:29:41.750Z,21.91
2022-10-14T14:32:11.345Z,21.88
2022-10-14T14:34:39.038Z,21.88
2022-10-14T14:37:34.305Z,21.82
2022-10-14T14:40:00.214Z,22.08
2022-10-14T14:42:26.774Z,22.18
2022-10-14T14:44:54.766Z,22.28
2022-10-14T14:47:21.320Z,22.31
2022-10-14T14:49:47.883Z,22.35
2022-10-14T14:52:14.195Z,22.38
2022-10-14T14:54:44.168Z,22.38
2022-10-14T14:57:10.873Z,22.35
2022-10-14T14:59:38.167Z,22.38
2022-10-14T15:02:05.318Z,22.44
2022-10-14T15:04:32.573Z,22.36
2022-10-14T15:06:59.854Z,22.53
2022-10-14T15:09:30.259Z,22.52
2022-10-14T15:11:57.702Z,22.43
2022-10-14T15:14:30.626Z,22.43
2022-10-14T15:16:57.947Z,22.42
2022-10-14T15:19:35.559Z,22.53
2022-10-14T15:22:11.713Z,22.55
2022-10-14T15:24:57.154Z,22.24
2022-10-14T15:27:49.761Z,22.11
2022-10-14T15:30:17.285Z,21.96
2022-10-14T15:32:43.610Z,21.88
2022-10-14T15:35:16.431Z,21.96
2022-10-14T15:37:43.040Z,21.96
2022-10-14T15:40:10.426Z,21.93
2022-10-14T15:42:36.825Z,21.92
2022-10-14T15:45:03.163Z,21.89
2022-10-14T15:47:29.585Z,21.84
2022-10-14T15:49:56.805Z,21.82
2022-10-14T15:52:26.144Z,21.84
2022-10-14T15:54:53.730Z,21.89
2022-10-14T15:57:20.072Z,21.86
2022-10-14T15:59:49.433Z,21.83
2022-10-14T16:02:17.967Z,21.85
2022-10-14T16:05:00.680Z,21.80
2022-10-14T16:07:30.638Z,22.13
2022-10-14T16:09:56.964Z,22.20
2022-10-14T16:12:23.280Z,22.36
2022-10-14T16:14:49.612Z,22.44
2022-10-14T16:17:16.011Z,22.45
2022-10-14T16:19:42.793Z,22.40
2022-10-14T16:22:12.206Z,22.46
2022-10-14T16:24:39.149Z,22.51
2022-10-14T16:27:05.896Z,22.50
2022-10-14T16:29:32.333Z,22.60
2022-10-14T16:31:59.097Z,22.61
2022-10-14T16:34:25.439Z,22.64
2022-10-14T16:36:51.779Z,22.61
2022-10-14T16:39:18.451Z,22.65
2022-10-14T16:41:44.767Z,22.62
2022-10-14T16:44:24.714Z,22.32
2022-10-14T16:47:13.013Z,22.26
2022-10-14T16:49:39.356Z,22.29
2022-10-14T16:52:05.985Z,22.24
2022-10-14T16:54:32.306Z,22.03
2022-10-14T16:56:58.631Z,21.96
2022-10-14T16:59:25.087Z,21.96
2022-10-14T17:01:51.435Z,21.90
2022-10-14T17:04:19.531Z,21.88
2022-10-14T17:06:48.527Z,21.92
2022-10-14T17:09:15.182Z,21.87
2022-10-14T17:11:42.284Z,21.83
2022-10-14T17:14:08.833Z,21.81
2022-10-14T17:16:35.130Z,21.81
2022-10-14T17:19:01.469Z,21.77
2022-10-14T17:21:29.328Z,21.76
2022-10-14T17:23:56.555Z,21.77
2022-10-14T17:26:22.973Z,21.80
2022-10-14T17:28:49.728Z,21.77
2022-10-14T17:31:16.978Z,21.78
2022-10-14T17:33:43.294Z,21.75
2022-10-14T17:36:17.977Z,21.77
2022-10-14T17:38:44.290Z,21.71
2022-10-14T17:41:10.925Z,21.71
2022-10-14T17:43:37.677Z,21.73
2022-10-14T17:48:42.201Z,21.72
2022-10-14T17:51:14.390Z,21.70
2022-10-14T17:53:40.708Z,21.66
2022-10-14T17:56:10.741Z,21.65
2022-10-14T17:58:37.064Z,21.66
2022-10-14T18:01:04.325Z,21.46
2022-10-14T18:03:31.446Z,21.46
2022-10-14T18:05:58.188Z,21.47
2022-10-14T18:08:25.114Z,21.48
2022-10-14T18:10:51.424Z,21.50
2022-10-14T18:13:17.738Z,21.52
2022-10-14T18:15:44.731Z,21.60
2022-10-14T18:18:11.053Z,21.63
2022-10-14T18:20:37.966Z,21.65
2022-10-14T18:23:04.339Z,21.64
2022-10-14T18:25:30.690Z,21.63
2022-10-14T18:27:57.024Z,21.66
2022-10-14T18:30:23.703Z,21.69
2022-10-14T18:32:50.046Z,21.66
2022-10-14T18:35:16.425Z,21.67
2022-10-14T18:37:42.746Z,21.69
2022-10-14T18:40:09.237Z,21.70
2022-10-14T18:42:35.781Z,21.60
2022-10-14T18:45:02.392Z,21.62
2022-10-14T18:47:28.915Z,21.65
2022-10-14T18:49:55.594Z,21.63
2022-10-14T18:52:23.700Z,21.68
2022-10-14T18:54:50.523Z,21.69
2022-10-14T18:57:17.545Z,21.68
2022-10-14T18:59:43.906Z,21.65
2022-10-14T19:02:11.079Z,21.65
2022-10-14T19:04:37.604Z,21.64
2022-10-14T19:07:04.171Z,21.65
2022-10-14T19:09:30.510Z,21.62
2022-10-14T19:11:58.899Z,21.60
2022-10-14T19:14:25.466Z,21.63
2022-10-14T19:16:51.785Z,21.62
2022-10-14T19:19:19.358Z,21.62
2022-10-14T19:21:46.365Z,21.60
2022-10-14T19:24:12.777Z,21.60
2022-10-14T19:26:40.170Z,21.60
2022-10-14T19:29:10.474Z,21.60
2022-10-14T19:31:38.010Z,21.58
2022-10-14T19:34:05.033Z,21.59
2022-10-14T19:36:32.509Z,21.59
2022-10-14T19:38:58.833Z,21.60
2022-10-14T19:41:25.547Z,21.60
2022-10-14T19:43:53.584Z,21.59
2022-10-14T19:46:20.337Z,21.58
2022-10-14T19:48:46.651Z,21.58
2022-10-14T19:51:12.987Z,21.56
2022-10-14T19:53:39.306Z,21.55
2022-10-14T19:56:06.358Z,21.54
2022-10-14T19:58:32.674Z,21.55
2022-10-14T20:00:59.210Z,21.54
2022-10-14T20:03:25.593Z,21.55
2022-10-14T20:06:01.184Z,21.54
2022-10-14T20:08:27.511Z,21.55
2022-10-14T20:10:53.845Z,21.54
2022-10-14T20:13:20.186Z,21.53
2022-10-14T20:15:52.209Z,21.52
2022-10-14T20:18:18.537Z,21.53
2022-10-14T20:20:44.892Z,21.51
2022-10-14T20:23:11.207Z,21.52
2022-10-14T20:25:37.601Z,21.51
2022-10-14T20:28:03.948Z,21.51
2022-10-14T20:30:30.279Z,21.51
2022-10-14T20:32:56.662Z,21.50
2022-10-14T20:35:23.283Z,21.52
2022-10-14T20:37:49.632Z,21.50
2022-10-14T20:40:16.160Z,21.50
2022-10-14T20:42:42.492Z,21.49
2022-10-14T20:45:08.990Z,21.49
2022-10-14T20:47:35.363Z,21.49
2022-10-14T20:50:01.716Z,21.50
2022-10-14T20:52:28.607Z,21.49
2022-10-14T20:54:54.975Z,21.47
2022-10-14T20:57:21.569Z,21.47
2022-10-14T20:59:48.111Z,21.48
2022-10-14T21:02:15.752Z,21.47
2022-10-14T21:04:42.489Z,21.46
2022-10-14T21:07:08.807Z,21.45
2022-10-14T21:09:35.163Z,21.46
2022-10-14T21:12:01.487Z,21.45
2022-10-14T21:14:27.815Z,21.47
2022-10-14T21:16:54.137Z,21.46
2022-10-14T21:19:21.953Z,21.45
2022-10-14T21:21:51.328Z,21.46
2022-10-14T21:24:18.091Z,21.44
2022-10-14T21:26:44.644Z,21.44
2022-10-14T21:29:11.035Z,21.43
2022-10-14T21:31:37.368Z,21.44
2022-10-14T21:34:06.161Z,21.42
2022-10-14T21:36:33.444Z,21.44
2022-10-14T21:39:01.375Z,21.42
2022-10-14T21:41:27.894Z,21.43
2022-10-14T21:43:55.393Z,21.43
2022-10-14T21:46:21.721Z,21.42
2022-10-14T21:48:48.072Z,21.42
2022-10-14T21:51:15.161Z,21.42
2022-10-14T21:53:41.702Z,21.40
2022-10-14T21:56:08.197Z,21.41
2022-10-14T21:58:34.665Z,21.42
2022-10-14T22:01:01.996Z,21.43
2022-10-14T22:03:28.397Z,21.42
2022-10-14T22:05:58.621Z,21.41
2022-10-14T22:08:24.957Z,21.42
2022-10-14T22:10:51.426Z,21.39
2022-10-14T22:13:17.837Z,21.39
2022-10-14T22:15:44.168Z,21.38
2022-10-14T22:18:10.522Z,21.38
2022-10-14T22:20:37.033Z,21.40
2022-10-14T22:23:03.396Z,21.40
2022-10-14T22:25:29.712Z,21.39
2022-10-14T22:27:56.042Z,21.37
2022-10-14T22:30:22.364Z,21.36
2022-10-14T22:32:48.673Z,21.36
2022-10-14T22:35:14.987Z,21.37
2022-10-14T22:37:41.599Z,21.36
2022-10-14T22:40:08.085Z,21.36
2022-10-14T22:42:35.954Z,21.33
2022-10-14T22:45:04.422Z,21.33
2022-10-14T22:47:32.102Z,21.34
2022-10-14T22:49:58.472Z,21.37
2022-10-14T22:52:25.029Z,21.33
2022-10-14T22:54:51.554Z,21.34
2022-10-14T22:57:17.935Z,21.34
2022-10-14T22:59:44.321Z,21.34
2022-10-14T23:02:10.670Z,21.33
2022-10-14T23:04:37.031Z,21.33
2022-10-14T23:07:06.926Z,21.33
2022-10-14T23:12:05.518Z,21.32
2022-10-14T23:14:32.062Z,21.30
2022-10-14T23:16:58.374Z,21.29
2022-10-14T23:19:24.704Z,21.32
2022-10-14T23:21:51.106Z,21.28
2022-10-14T23:24:17.473Z,21.32
2022-10-14T23:26:43.803Z,21.32
2022-10-14T23:29:11.360Z,21.29
2022-10-14T23:31:37.879Z,21.29
2022-10-14T23:34:05.042Z,21.30
2022-10-14T23:36:31.545Z,21.29
2022-10-14T23:38:57.953Z,21.29
2022-10-14T23:41:24.259Z,21.30
2022-10-14T23:43:50.708Z,21.32
2022-10-14T23:46:17.268Z,21.33
2022-10-14T23:48:47.978Z,21.33
2022-10-14T23:51:22.032Z,21.33
2022-10-14T23:53:48.442Z,21.32
2022-10-14T23:56:14.775Z,21.31
2022-10-14T23:58:41.105Z,21.31
